createdAt,value
2018-03-31T00:00:08.891Z,0
2018-03-31T00:01:10.622Z,0
2018-03-31T00:02:12.524Z,0
2018-03-31T00:03:14.447Z,0
2018-03-31T00:04:15.960Z,0
2018-03-31T00:05:17.527Z,0
2018-03-31T00:06:19.392Z,0
2018-03-31T00:07:21.476Z,0
2018-03-31T00:08:23.092Z,0
2018-03-31T00:09:24.899Z,0
2018-03-31T00:10:26.684Z,0
2018-03-31T00:11:28.137Z,0
2018-03-31T00:12:29.843Z,0
2018-03-31T00:13:31.646Z,0
2018-03-31T00:14:33.380Z,0
2018-03-31T00:15:35.253Z,0
2018-03-31T00:16:37.189Z,0
2018-03-31T00:17:39.029Z,0
2018-03-31T00:18:40.708Z,0
2018-03-31T00:19:42.401Z,0
2018-03-31T00:20:44.444Z,0
2018-03-31T00:21:46.334Z,0
2018-03-31T00:22:47.933Z,0
2018-03-31T00:23:49.653Z,0
2018-03-31T00:24:51.486Z,0
2018-03-31T00:25:52.982Z,0
2018-03-31T00:26:54.889Z,0
2018-03-31T00:27:56.784Z,0
2018-03-31T00:28:58.547Z,0
2018-03-31T00:30:00.378Z,0
2018-03-31T00:31:01.817Z,0
2018-03-31T00:32:03.365Z,0
2018-03-31T00:33:05.368Z,0
2018-03-31T00:34:07.365Z,0
2018-03-31T00:35:09.298Z,0
2018-03-31T00:36:10.824Z,0
2018-03-31T00:37:12.266Z,0
2018-03-31T00:38:13.766Z,0
2018-03-31T00:39:15.248Z,0
2018-03-31T00:40:16.736Z,0
2018-03-31T00:41:18.235Z,0
2018-03-31T00:42:19.697Z,0
2018-03-31T00:43:21.279Z,0
2018-03-31T00:44:22.761Z,0
2018-03-31T00:45:24.243Z,0
2018-03-31T00:46:25.780Z,0
2018-03-31T00:47:27.231Z,0
2018-03-31T00:48:28.668Z,0
2018-03-31T00:49:30.130Z,0
2018-03-31T00:50:31.679Z,0
2018-03-31T00:51:33.206Z,0
2018-03-31T00:52:34.641Z,0
2018-03-31T00:53:36.118Z,0
2018-03-31T00:54:37.591Z,0
2018-03-31T00:55:39.072Z,0
2018-03-31T00:56:40.686Z,0
2018-03-31T00:57:42.350Z,0
2018-03-31T00:58:43.999Z,0
2018-03-31T00:59:45.582Z,0
2018-03-31T01:00:47.003Z,0
2018-03-31T01:01:48.442Z,0
2018-03-31T01:02:49.979Z,0
2018-03-31T01:03:51.493Z,0
2018-03-31T01:04:52.935Z,0
2018-03-31T01:05:54.364Z,0
2018-03-31T01:06:55.837Z,0
2018-03-31T01:07:57.246Z,0
2018-03-31T01:08:58.679Z,0
2018-03-31T01:10:00.155Z,0
2018-03-31T01:11:01.666Z,0
2018-03-31T01:12:03.144Z,0
2018-03-31T01:13:04.583Z,0
2018-03-31T01:14:06.074Z,0
2018-03-31T01:15:07.581Z,0
2018-03-31T01:16:09.041Z,0
2018-03-31T01:17:10.529Z,0
2018-03-31T01:18:11.983Z,0
2018-03-31T01:19:13.455Z,0
2018-03-31T01:20:14.924Z,0
2018-03-31T01:21:16.426Z,0
2018-03-31T01:22:17.892Z,0
2018-03-31T01:23:19.350Z,0
2018-03-31T01:24:20.772Z,0
2018-03-31T01:25:22.280Z,0
2018-03-31T01:26:23.780Z,0
2018-03-31T01:27:25.468Z,0
2018-03-31T01:28:27.177Z,0
2018-03-31T01:29:28.678Z,0
2018-03-31T01:30:30.222Z,0
2018-03-31T01:31:31.691Z,0
2018-03-31T01:32:33.125Z,0
2018-03-31T01:33:34.590Z,0
2018-03-31T01:34:36.061Z,0
2018-03-31T01:35:37.537Z,0
2018-03-31T01:36:39.049Z,0
2018-03-31T01:37:40.494Z,0
2018-03-31T01:38:42.024Z,0
2018-03-31T01:39:43.736Z,0
2018-03-31T01:40:45.383Z,0
2018-03-31T01:41:46.841Z,0
2018-03-31T01:42:48.287Z,0
2018-03-31T01:43:49.728Z,0
2018-03-31T01:44:51.248Z,0
2018-03-31T01:45:52.681Z,0
2018-03-31T01:46:54.116Z,0
2018-03-31T01:47:55.714Z,0
2018-03-31T01:48:57.172Z,0
2018-03-31T01:49:58.845Z,0
2018-03-31T01:51:00.340Z,0
2018-03-31T01:52:01.992Z,0
2018-03-31T01:53:03.689Z,0
2018-03-31T01:54:05.438Z,0
2018-03-31T01:55:07.136Z,0
2018-03-31T01:56:08.938Z,0
2018-03-31T01:57:10.416Z,0
2018-03-31T01:58:11.947Z,0
2018-03-31T01:59:13.723Z,0
2018-03-31T02:00:15.519Z,0
2018-03-31T02:01:17.273Z,0
2018-03-31T02:02:19.058Z,0
2018-03-31T02:03:20.735Z,0
2018-03-31T02:04:22.204Z,0
2018-03-31T02:05:23.681Z,0
2018-03-31T02:06:25.131Z,0
2018-03-31T02:07:26.588Z,0
2018-03-31T02:08:28.088Z,0
2018-03-31T02:09:29.550Z,0
2018-03-31T02:10:31.257Z,0
2018-03-31T02:11:32.922Z,0
2018-03-31T02:12:34.700Z,0
2018-03-31T02:13:36.130Z,0
2018-03-31T02:14:37.629Z,0
2018-03-31T02:15:39.144Z,0
2018-03-31T02:16:40.760Z,0
2018-03-31T02:17:42.328Z,0
2018-03-31T02:18:43.817Z,0
2018-03-31T02:19:45.260Z,0
2018-03-31T02:20:46.752Z,0
2018-03-31T02:21:48.334Z,0
2018-03-31T02:22:50.067Z,0
2018-03-31T02:23:51.712Z,0
2018-03-31T02:24:53.463Z,0
2018-03-31T02:25:55.151Z,0
2018-03-31T02:26:56.827Z,0
2018-03-31T02:27:58.553Z,0
2018-03-31T02:29:00.236Z,0
2018-03-31T02:30:01.844Z,0
2018-03-31T02:31:03.533Z,0
2018-03-31T02:32:04.986Z,0
2018-03-31T02:33:06.399Z,0
2018-03-31T02:34:07.968Z,0
2018-03-31T02:35:09.490Z,0
2018-03-31T02:36:10.930Z,0
2018-03-31T02:37:12.483Z,0
2018-03-31T02:38:14.086Z,0
2018-03-31T02:39:15.526Z,0
2018-03-31T02:40:17.025Z,0
2018-03-31T02:41:18.779Z,0
2018-03-31T02:42:20.480Z,0
2018-03-31T02:43:21.941Z,0
2018-03-31T02:44:23.445Z,0
2018-03-31T02:45:24.912Z,0
2018-03-31T02:46:26.383Z,0
2018-03-31T02:47:27.860Z,0
2018-03-31T02:48:29.273Z,0
2018-03-31T02:49:30.961Z,0
2018-03-31T02:50:32.606Z,0
2018-03-31T02:51:34.325Z,0
2018-03-31T02:52:35.789Z,0
2018-03-31T02:53:37.327Z,0
2018-03-31T02:54:39.003Z,0
2018-03-31T02:55:40.823Z,0
2018-03-31T02:56:42.524Z,0
2018-03-31T02:57:44.043Z,0
2018-03-31T02:58:45.512Z,0
2018-03-31T02:59:47.008Z,0
2018-03-31T03:00:48.458Z,0
2018-03-31T03:01:50.094Z,0
2018-03-31T03:02:51.791Z,0
2018-03-31T03:03:53.620Z,0
2018-03-31T03:04:55.317Z,0
2018-03-31T03:05:56.941Z,0
2018-03-31T03:06:58.669Z,0
2018-03-31T03:08:00.423Z,0
2018-03-31T03:09:01.951Z,0
2018-03-31T03:10:03.736Z,0
2018-03-31T03:11:05.224Z,0
2018-03-31T03:12:06.694Z,0
2018-03-31T03:13:08.244Z,0
2018-03-31T03:14:09.728Z,0
2018-03-31T03:15:11.205Z,0
2018-03-31T03:16:12.659Z,0
2018-03-31T03:17:14.100Z,0
2018-03-31T03:18:15.672Z,0
2018-03-31T03:19:17.132Z,0
2018-03-31T03:20:18.711Z,0
2018-03-31T03:21:20.129Z,0
2018-03-31T03:22:21.779Z,0
2018-03-31T03:23:23.428Z,0
2018-03-31T03:24:24.970Z,0
2018-03-31T03:25:26.756Z,0
2018-03-31T03:26:28.518Z,0
2018-03-31T03:27:30.269Z,0
2018-03-31T03:28:31.908Z,0
2018-03-31T03:29:33.670Z,0
2018-03-31T03:30:35.316Z,0
2018-03-31T03:31:36.799Z,0
2018-03-31T03:32:38.564Z,0
2018-03-31T03:33:40.086Z,0
2018-03-31T03:34:41.597Z,0
2018-03-31T03:35:43.301Z,0
2018-03-31T03:36:44.953Z,0
2018-03-31T03:37:46.410Z,0
2018-03-31T03:38:47.851Z,0
2018-03-31T03:39:49.308Z,0
2018-03-31T03:40:50.807Z,0
2018-03-31T03:41:52.375Z,0
2018-03-31T03:42:54.033Z,0
2018-03-31T03:43:55.808Z,0
2018-03-31T03:44:57.541Z,0
2018-03-31T03:45:59.248Z,0
2018-03-31T03:47:00.971Z,0
2018-03-31T03:48:02.631Z,0
2018-03-31T03:49:04.447Z,0
2018-03-31T03:50:06.065Z,0
2018-03-31T03:51:07.842Z,0
2018-03-31T03:52:09.326Z,0
2018-03-31T03:53:11.017Z,0
2018-03-31T03:54:12.781Z,0
2018-03-31T03:55:14.465Z,0
2018-03-31T03:56:15.909Z,0
2018-03-31T03:57:17.497Z,0
2018-03-31T03:58:18.928Z,0
2018-03-31T03:59:20.362Z,0
2018-03-31T04:00:21.838Z,0
2018-03-31T04:01:23.351Z,0
2018-03-31T04:02:24.967Z,0
2018-03-31T04:03:26.480Z,0
2018-03-31T04:04:28.293Z,0
2018-03-31T04:05:29.958Z,0
2018-03-31T04:06:31.653Z,0
2018-03-31T04:07:33.167Z,0
2018-03-31T04:08:34.811Z,0
2018-03-31T04:09:36.287Z,0
2018-03-31T04:10:38.030Z,0
2018-03-31T04:11:39.764Z,0
2018-03-31T04:12:41.514Z,0
2018-03-31T04:13:43.204Z,0
2018-03-31T04:14:44.908Z,0
2018-03-31T04:15:46.658Z,0
2018-03-31T04:16:48.394Z,0
2018-03-31T04:17:50.156Z,0
2018-03-31T04:18:51.653Z,0
2018-03-31T04:19:53.327Z,0
2018-03-31T04:20:54.776Z,0
2018-03-31T04:21:56.485Z,0
2018-03-31T04:22:58.303Z,0
2018-03-31T04:24:00.040Z,0
2018-03-31T04:25:01.750Z,0
2018-03-31T04:26:03.474Z,0
2018-03-31T04:27:05.249Z,0
2018-03-31T04:28:07.342Z,0
2018-03-31T04:29:09.009Z,0
2018-03-31T04:30:10.735Z,0
2018-03-31T04:31:12.379Z,0
2018-03-31T04:32:14.062Z,0
2018-03-31T04:33:15.766Z,0
2018-03-31T04:34:17.224Z,0
2018-03-31T04:35:18.861Z,0
2018-03-31T04:36:20.383Z,0
2018-03-31T04:37:22.031Z,0
2018-03-31T04:38:23.787Z,0
2018-03-31T04:39:25.456Z,0
2018-03-31T04:40:27.104Z,0
2018-03-31T04:41:28.793Z,0
2018-03-31T04:42:30.404Z,0
2018-03-31T04:43:31.984Z,0
2018-03-31T04:44:33.436Z,0
2018-03-31T04:45:34.907Z,0
2018-03-31T04:46:36.380Z,0
2018-03-31T04:47:37.995Z,0
2018-03-31T04:48:39.397Z,0
2018-03-31T04:49:41.112Z,0
2018-03-31T04:50:42.596Z,0
2018-03-31T04:51:44.247Z,0
2018-03-31T04:52:45.899Z,0
2018-03-31T04:53:47.549Z,0
2018-03-31T04:54:49.068Z,0
2018-03-31T04:55:50.526Z,0
2018-03-31T04:56:51.933Z,0
2018-03-31T04:57:53.583Z,0
2018-03-31T04:58:55.246Z,0
2018-03-31T04:59:56.974Z,0
2018-03-31T05:00:58.500Z,0
2018-03-31T05:01:59.983Z,0
2018-03-31T05:03:01.505Z,5
2018-03-31T05:04:02.950Z,5
2018-03-31T05:05:04.436Z,5
2018-03-31T05:06:05.847Z,5
2018-03-31T05:07:07.393Z,5
2018-03-31T05:08:08.913Z,5
2018-03-31T05:09:10.406Z,5
2018-03-31T05:10:11.835Z,10
2018-03-31T05:11:13.317Z,10
2018-03-31T05:12:14.979Z,10
2018-03-31T05:13:16.594Z,10
2018-03-31T05:14:18.035Z,10
2018-03-31T05:15:19.525Z,15
2018-03-31T05:16:20.967Z,15
2018-03-31T05:17:22.386Z,15
2018-03-31T05:18:23.865Z,20
2018-03-31T05:19:25.308Z,20
2018-03-31T05:20:26.851Z,20
2018-03-31T05:21:28.604Z,25
2018-03-31T05:22:30.251Z,25
2018-03-31T05:23:31.746Z,25
2018-03-31T05:24:33.245Z,30
2018-03-31T05:25:34.956Z,30
2018-03-31T05:26:36.622Z,30
2018-03-31T05:27:38.412Z,35
2018-03-31T05:28:39.877Z,35
2018-03-31T05:29:41.634Z,40
2018-03-31T05:30:43.108Z,40
2018-03-31T05:31:44.719Z,40
2018-03-31T05:32:46.456Z,45
2018-03-31T05:33:47.920Z,45
2018-03-31T05:34:49.356Z,50
2018-03-31T05:35:50.999Z,50
2018-03-31T05:36:52.422Z,50
2018-03-31T05:37:54.030Z,55
2018-03-31T05:38:55.662Z,55
2018-03-31T05:39:57.162Z,60
2018-03-31T05:40:58.905Z,60
2018-03-31T05:42:00.588Z,65
2018-03-31T05:43:02.309Z,65
2018-03-31T05:44:03.881Z,70
2018-03-31T05:45:05.383Z,70
2018-03-31T05:46:06.842Z,75
2018-03-31T05:47:08.323Z,75
2018-03-31T05:48:09.919Z,75
2018-03-31T05:49:11.572Z,80
2018-03-31T05:50:13.214Z,80
2018-03-31T05:51:14.951Z,85
2018-03-31T05:52:16.495Z,90
2018-03-31T05:53:17.875Z,90
2018-03-31T05:54:19.333Z,95
2018-03-31T05:55:20.791Z,95
2018-03-31T05:56:22.196Z,95
2018-03-31T05:57:23.666Z,95
2018-03-31T05:58:25.477Z,95
2018-03-31T05:59:27.212Z,95
2018-03-31T06:00:28.818Z,95
2018-03-31T06:01:30.512Z,100
2018-03-31T06:02:32.249Z,105
2018-03-31T06:03:34.047Z,105
2018-03-31T06:04:35.765Z,110
2018-03-31T06:05:37.562Z,115
2018-03-31T06:06:39.050Z,120
2018-03-31T06:07:40.779Z,125
2018-03-31T06:08:42.522Z,130
2018-03-31T06:09:44.411Z,140
2018-03-31T06:10:46.176Z,145
2018-03-31T06:11:47.942Z,145
2018-03-31T06:12:49.627Z,150
2018-03-31T06:13:51.307Z,160
2018-03-31T06:14:52.731Z,160
2018-03-31T06:15:54.218Z,165
2018-03-31T06:16:55.884Z,170
2018-03-31T06:17:57.581Z,175
2018-03-31T06:18:59.348Z,180
2018-03-31T06:20:01.133Z,190
2018-03-31T06:21:02.821Z,185
2018-03-31T06:22:04.537Z,190
2018-03-31T06:23:06.222Z,175
2018-03-31T06:24:08.076Z,180
2018-03-31T06:25:09.722Z,180
2018-03-31T06:26:11.177Z,185
2018-03-31T06:27:12.719Z,190
2018-03-31T06:28:14.185Z,190
2018-03-31T06:29:15.720Z,190
2018-03-31T06:30:17.172Z,200
2018-03-31T06:31:18.867Z,220
2018-03-31T06:32:20.555Z,220
2018-03-31T06:33:22.315Z,220
2018-03-31T06:34:23.843Z,205
2018-03-31T06:35:25.444Z,205
2018-03-31T06:36:27.033Z,205
2018-03-31T06:37:28.635Z,210
2018-03-31T06:38:30.093Z,215
2018-03-31T06:39:31.660Z,235
2018-03-31T06:40:33.279Z,255
2018-03-31T06:41:35.055Z,270
2018-03-31T06:42:36.785Z,275
2018-03-31T06:43:38.409Z,285
2018-03-31T06:44:39.933Z,295
2018-03-31T06:45:41.429Z,275
2018-03-31T06:46:42.876Z,265
2018-03-31T06:47:44.506Z,290
2018-03-31T06:48:45.970Z,300
2018-03-31T06:49:47.390Z,300
2018-03-31T06:50:48.876Z,300
2018-03-31T06:51:50.338Z,285
2018-03-31T06:52:51.812Z,260
2018-03-31T06:53:53.323Z,265
2018-03-31T06:54:54.846Z,260
2018-03-31T06:55:56.390Z,260
2018-03-31T06:56:57.894Z,265
2018-03-31T06:57:59.324Z,260
2018-03-31T06:59:00.816Z,260
2018-03-31T07:00:02.345Z,270
2018-03-31T07:01:03.807Z,275
2018-03-31T07:02:05.309Z,295
2018-03-31T07:03:06.772Z,305
2018-03-31T07:04:08.255Z,305
2018-03-31T07:05:10.058Z,305
2018-03-31T07:06:11.505Z,310
2018-03-31T07:07:12.981Z,305
2018-03-31T07:08:14.444Z,325
2018-03-31T07:09:15.900Z,330
2018-03-31T07:10:17.376Z,335
2018-03-31T07:11:18.895Z,345
2018-03-31T07:12:20.340Z,355
2018-03-31T07:13:21.770Z,370
2018-03-31T07:14:23.288Z,365
2018-03-31T07:15:24.777Z,350
2018-03-31T07:16:26.358Z,375
2018-03-31T07:17:27.814Z,375
2018-03-31T07:18:29.257Z,380
2018-03-31T07:19:30.702Z,400
2018-03-31T07:20:32.204Z,410
2018-03-31T07:21:33.758Z,410
2018-03-31T07:22:35.188Z,430
2018-03-31T07:23:36.678Z,420
2018-03-31T07:24:38.133Z,420
2018-03-31T07:25:39.612Z,405
2018-03-31T07:26:41.139Z,440
2018-03-31T07:27:42.629Z,480
2018-03-31T07:28:44.136Z,500
2018-03-31T07:29:45.610Z,500
2018-03-31T07:30:47.030Z,510
2018-03-31T07:31:48.478Z,525
2018-03-31T07:32:49.920Z,535
2018-03-31T07:33:51.397Z,550
2018-03-31T07:34:52.867Z,545
2018-03-31T07:35:54.331Z,545
2018-03-31T07:36:55.798Z,550
2018-03-31T07:37:57.224Z,565
2018-03-31T07:38:58.703Z,565
2018-03-31T07:40:00.119Z,565
2018-03-31T07:41:01.599Z,560
2018-03-31T07:42:03.026Z,560
2018-03-31T07:43:04.465Z,560
2018-03-31T07:44:05.919Z,525
2018-03-31T07:45:10.004Z,505
2018-03-31T07:46:11.610Z,510
2018-03-31T07:47:13.265Z,495
2018-03-31T07:48:14.750Z,505
2018-03-31T07:49:16.217Z,510
2018-03-31T07:50:17.670Z,530
2018-03-31T07:51:19.169Z,520
2018-03-31T07:52:20.755Z,535
2018-03-31T07:53:22.223Z,525
2018-03-31T07:54:23.707Z,515
2018-03-31T07:55:25.122Z,515
2018-03-31T07:56:26.576Z,510
2018-03-31T07:57:28.056Z,495
2018-03-31T07:58:29.619Z,520
2018-03-31T07:59:31.261Z,510
2018-03-31T08:00:32.708Z,505
2018-03-31T08:01:34.157Z,505
2018-03-31T08:02:35.589Z,480
2018-03-31T08:03:37.159Z,470
2018-03-31T08:04:38.697Z,475
2018-03-31T08:05:40.246Z,490
2018-03-31T08:06:42.013Z,500
2018-03-31T08:07:43.829Z,505
2018-03-31T08:08:45.261Z,530
2018-03-31T08:09:46.672Z,550
2018-03-31T08:10:48.098Z,555
2018-03-31T08:11:49.748Z,540
2018-03-31T08:12:51.165Z,530
2018-03-31T08:13:52.577Z,510
2018-03-31T08:14:54.906Z,525
2018-03-31T08:15:56.410Z,545
2018-03-31T08:16:57.956Z,550
2018-03-31T08:17:59.524Z,550
2018-03-31T08:19:01.029Z,535
2018-03-31T08:20:02.457Z,550
2018-03-31T08:21:03.931Z,550
2018-03-31T08:22:05.395Z,555
2018-03-31T08:23:07.155Z,570
2018-03-31T08:24:08.713Z,565
2018-03-31T08:25:10.157Z,555
2018-03-31T08:26:11.696Z,540
2018-03-31T08:27:13.357Z,520
2018-03-31T08:28:14.927Z,545
2018-03-31T08:29:16.618Z,585
2018-03-31T08:30:18.156Z,575
2018-03-31T08:31:19.927Z,545
2018-03-31T08:32:21.562Z,540
2018-03-31T08:33:23.337Z,560
2018-03-31T08:34:25.210Z,565
2018-03-31T08:35:26.863Z,580
2018-03-31T08:36:28.531Z,590
2018-03-31T08:37:30.050Z,595
2018-03-31T08:38:31.693Z,600
2018-03-31T08:39:33.244Z,605
2018-03-31T08:40:34.795Z,600
2018-03-31T08:41:36.519Z,600
2018-03-31T08:42:38.144Z,560
2018-03-31T08:43:39.977Z,555
2018-03-31T08:44:41.422Z,580
2018-03-31T08:45:43.187Z,590
2018-03-31T08:46:44.780Z,590
2018-03-31T08:47:46.217Z,585
2018-03-31T08:48:48.076Z,600
2018-03-31T08:49:50.068Z,555
2018-03-31T08:50:51.693Z,550
2018-03-31T08:51:53.525Z,515
2018-03-31T08:52:55.336Z,545
2018-03-31T08:53:56.869Z,585
2018-03-31T08:54:58.719Z,620
2018-03-31T08:56:00.231Z,630
2018-03-31T08:57:01.804Z,650
2018-03-31T08:58:03.704Z,650
2018-03-31T08:59:05.162Z,655
2018-03-31T09:00:06.752Z,630
2018-03-31T09:01:08.578Z,640
2018-03-31T09:02:10.455Z,645
2018-03-31T09:03:12.438Z,650
2018-03-31T09:04:14.295Z,645
2018-03-31T09:05:16.275Z,645
2018-03-31T09:06:18.215Z,645
2018-03-31T09:07:20.331Z,645
2018-03-31T09:08:22.279Z,625
2018-03-31T09:09:23.947Z,650
2018-03-31T09:10:25.616Z,650
2018-03-31T09:11:27.412Z,655
2018-03-31T09:12:29.215Z,665
2018-03-31T09:13:31.024Z,670
2018-03-31T09:14:32.792Z,685
2018-03-31T09:15:34.577Z,685
2018-03-31T09:16:36.974Z,670
2018-03-31T09:17:39.250Z,660
2018-03-31T09:18:41.170Z,650
2018-03-31T09:19:42.911Z,650
2018-03-31T09:20:44.375Z,640
2018-03-31T09:21:45.995Z,625
2018-03-31T09:22:47.402Z,635
2018-03-31T09:23:49.169Z,640
2018-03-31T09:24:50.600Z,660
2018-03-31T09:25:52.164Z,660
2018-03-31T09:26:53.828Z,665
2018-03-31T09:27:55.359Z,670
2018-03-31T09:28:56.893Z,670
2018-03-31T09:29:58.416Z,655
2018-03-31T09:30:59.882Z,665
2018-03-31T09:32:01.416Z,680
2018-03-31T09:33:02.929Z,680
2018-03-31T09:34:04.438Z,690
2018-03-31T09:35:05.928Z,725
2018-03-31T09:36:07.393Z,735
2018-03-31T09:37:08.907Z,730
2018-03-31T09:38:10.442Z,660
2018-03-31T09:39:12.224Z,745
2018-03-31T09:40:13.666Z,750
2018-03-31T09:41:15.168Z,750
2018-03-31T09:42:16.645Z,775
2018-03-31T09:43:18.215Z,820
2018-03-31T09:44:19.664Z,805
2018-03-31T09:45:21.139Z,855
2018-03-31T09:46:22.546Z,865
2018-03-31T09:47:23.999Z,870
2018-03-31T09:48:25.409Z,880
2018-03-31T09:49:26.892Z,920
2018-03-31T09:50:28.343Z,965
2018-03-31T09:51:30.196Z,995
2018-03-31T09:52:32.059Z,1005
2018-03-31T09:53:33.901Z,1020
2018-03-31T09:54:35.767Z,1015
2018-03-31T09:55:37.732Z,1015
2018-03-31T09:56:39.221Z,1020
2018-03-31T09:57:41.110Z,1045
2018-03-31T09:58:42.993Z,1065
2018-03-31T09:59:45.181Z,1135
2018-03-31T10:00:46.811Z,1215
2018-03-31T10:01:48.457Z,1185
2018-03-31T10:02:50.081Z,1070
2018-03-31T10:03:51.723Z,1000
2018-03-31T10:04:53.204Z,940
2018-03-31T10:05:54.923Z,865
2018-03-31T10:06:56.330Z,825
2018-03-31T10:07:57.974Z,835
2018-03-31T10:08:59.806Z,860
2018-03-31T10:10:01.252Z,895
2018-03-31T10:11:03.167Z,910
2018-03-31T10:12:04.839Z,925
2018-03-31T10:13:06.487Z,980
2018-03-31T10:14:07.892Z,985
2018-03-31T10:15:09.433Z,985
2018-03-31T10:16:11.242Z,985
2018-03-31T10:17:12.831Z,985
2018-03-31T10:18:14.306Z,985
2018-03-31T10:19:15.882Z,990
2018-03-31T10:20:17.535Z,1010
2018-03-31T10:21:18.957Z,1015
2018-03-31T10:22:20.701Z,1035
2018-03-31T10:23:22.163Z,1050
2018-03-31T10:24:24.091Z,1055
2018-03-31T10:25:26.081Z,1065
2018-03-31T10:26:27.849Z,1075
2018-03-31T10:27:29.465Z,1110
2018-03-31T10:28:31.025Z,1115
2018-03-31T10:29:32.482Z,1135
2018-03-31T10:30:34.122Z,1160
2018-03-31T10:31:35.884Z,1155
2018-03-31T10:32:38.865Z,1155
2018-03-31T10:33:40.637Z,1150
2018-03-31T10:34:42.079Z,1155
2018-03-31T10:35:43.841Z,1180
2018-03-31T10:36:45.772Z,1175
2018-03-31T10:37:47.211Z,1180
2018-03-31T10:38:48.677Z,1240
2018-03-31T10:39:50.131Z,1305
2018-03-31T10:40:51.728Z,1340
2018-03-31T10:41:53.287Z,1355
2018-03-31T10:42:54.702Z,1300
2018-03-31T10:43:56.479Z,1335
2018-03-31T10:44:58.224Z,1370
2018-03-31T10:45:59.873Z,1290
2018-03-31T10:47:01.827Z,1350
2018-03-31T10:48:03.246Z,1370
2018-03-31T10:49:04.817Z,1465
2018-03-31T10:50:06.552Z,1500
2018-03-31T10:51:07.982Z,1420
2018-03-31T10:52:09.870Z,1525
2018-03-31T10:53:11.372Z,1505
2018-03-31T10:54:12.855Z,1480
2018-03-31T10:55:14.639Z,1460
2018-03-31T10:56:16.475Z,1490
2018-03-31T10:57:18.031Z,1500
2018-03-31T10:58:19.481Z,1495
2018-03-31T10:59:20.891Z,1590
2018-03-31T11:00:22.480Z,1600
2018-03-31T11:01:23.879Z,1705
2018-03-31T11:02:25.385Z,1710
2018-03-31T11:03:26.846Z,1720
2018-03-31T11:04:28.451Z,1795
2018-03-31T11:05:30.078Z,1900
2018-03-31T11:06:31.560Z,1985
2018-03-31T11:07:33.159Z,1990
2018-03-31T11:08:34.716Z,890
2018-03-31T11:09:36.169Z,720
2018-03-31T11:10:37.618Z,775
2018-03-31T11:11:39.299Z,865
2018-03-31T11:12:41.062Z,755
2018-03-31T11:13:42.588Z,815
2018-03-31T11:14:44.133Z,960
2018-03-31T11:15:46.020Z,2590
2018-03-31T11:16:48.051Z,2930
2018-03-31T11:17:49.487Z,2975
2018-03-31T11:18:50.926Z,3120
2018-03-31T11:19:52.441Z,3050
2018-03-31T11:20:53.995Z,1440
2018-03-31T11:21:55.661Z,2975
2018-03-31T11:22:57.091Z,1815
2018-03-31T11:23:58.857Z,1325
2018-03-31T11:25:00.332Z,930
2018-03-31T11:26:01.797Z,645
2018-03-31T11:27:03.451Z,700
2018-03-31T11:28:04.989Z,805
2018-03-31T11:29:06.634Z,1005
2018-03-31T11:30:08.213Z,1405
2018-03-31T11:31:10.127Z,2835
2018-03-31T11:32:11.871Z,820
2018-03-31T11:33:13.421Z,675
2018-03-31T11:34:14.913Z,725
2018-03-31T11:35:16.418Z,3050
2018-03-31T11:36:17.891Z,2585
2018-03-31T11:37:19.415Z,3120
2018-03-31T11:38:21.266Z,3060
2018-03-31T11:39:22.866Z,3200
2018-03-31T11:40:24.492Z,3235
2018-03-31T11:41:25.904Z,3225
2018-03-31T11:42:27.343Z,3115
2018-03-31T11:43:28.967Z,3180
2018-03-31T11:44:30.509Z,3110
2018-03-31T11:45:31.976Z,3185
2018-03-31T11:46:33.595Z,3295
2018-03-31T11:47:35.464Z,3315
2018-03-31T11:48:36.987Z,3170
2018-03-31T11:49:38.840Z,2005
2018-03-31T11:50:40.568Z,3060
2018-03-31T11:51:42.426Z,3000
2018-03-31T11:52:44.046Z,2915
2018-03-31T11:53:45.867Z,2910
2018-03-31T11:54:47.672Z,3060
2018-03-31T11:55:49.473Z,3090
2018-03-31T11:56:51.220Z,3045
2018-03-31T11:57:52.796Z,3130
2018-03-31T11:58:54.213Z,3140
2018-03-31T11:59:55.690Z,3015
2018-03-31T12:00:57.145Z,1055
2018-03-31T12:01:58.795Z,2600
2018-03-31T12:03:00.282Z,1020
2018-03-31T12:04:01.694Z,2800
2018-03-31T12:05:03.111Z,2835
2018-03-31T12:06:04.649Z,2995
2018-03-31T12:07:06.111Z,3150
2018-03-31T12:08:07.641Z,1770
2018-03-31T12:09:09.054Z,3000
2018-03-31T12:10:10.656Z,3010
2018-03-31T12:11:12.470Z,2840
2018-03-31T12:12:14.382Z,3010
2018-03-31T12:13:15.922Z,2795
2018-03-31T12:14:17.727Z,2905
2018-03-31T12:15:19.555Z,3010
2018-03-31T12:16:21.005Z,2960
2018-03-31T12:17:22.455Z,2990
2018-03-31T12:18:23.917Z,3125
2018-03-31T12:19:25.377Z,1580
2018-03-31T12:20:27.157Z,2640
2018-03-31T12:21:28.769Z,3065
2018-03-31T12:22:30.353Z,2200
2018-03-31T12:23:31.942Z,3165
2018-03-31T12:24:33.371Z,3110
2018-03-31T12:25:34.856Z,1365
2018-03-31T12:26:36.563Z,995
2018-03-31T12:27:37.949Z,2675
2018-03-31T12:28:39.640Z,3060
2018-03-31T12:29:41.333Z,3040
2018-03-31T12:30:42.757Z,3100
2018-03-31T12:31:44.607Z,3165
2018-03-31T12:32:46.364Z,3055
2018-03-31T12:33:47.982Z,3255
2018-03-31T12:34:49.485Z,3225
2018-03-31T12:35:51.213Z,3215
2018-03-31T12:36:52.641Z,2905
2018-03-31T12:37:54.058Z,1970
2018-03-31T12:38:55.488Z,1985
2018-03-31T12:39:56.948Z,2700
2018-03-31T12:40:58.561Z,805
2018-03-31T12:42:00.064Z,780
2018-03-31T12:43:01.518Z,825
2018-03-31T12:44:03.126Z,1270
2018-03-31T12:45:04.843Z,2240
2018-03-31T12:46:06.575Z,2345
2018-03-31T12:47:08.318Z,845
2018-03-31T12:48:10.142Z,780
2018-03-31T12:49:11.601Z,850
2018-03-31T12:50:13.136Z,1110
2018-03-31T12:51:14.895Z,2205
2018-03-31T12:52:16.529Z,710
2018-03-31T12:53:17.981Z,680
2018-03-31T12:54:19.761Z,690
2018-03-31T12:55:21.375Z,785
2018-03-31T12:56:22.853Z,970
2018-03-31T12:57:24.415Z,1695
2018-03-31T12:58:26.156Z,2150
2018-03-31T12:59:27.740Z,2700
2018-03-31T13:00:29.637Z,2395
2018-03-31T13:01:31.182Z,1410
2018-03-31T13:02:32.624Z,845
2018-03-31T13:03:34.108Z,795
2018-03-31T13:04:35.517Z,810
2018-03-31T13:05:37.123Z,855
2018-03-31T13:06:38.926Z,880
2018-03-31T13:07:40.851Z,935
2018-03-31T13:08:42.295Z,1180
2018-03-31T13:09:43.746Z,810
2018-03-31T13:10:45.311Z,820
2018-03-31T13:11:46.782Z,735
2018-03-31T13:12:48.267Z,695
2018-03-31T13:13:49.712Z,730
2018-03-31T13:14:51.240Z,830
2018-03-31T13:15:52.682Z,925
2018-03-31T13:16:54.099Z,1040
2018-03-31T13:17:55.647Z,1240
2018-03-31T13:18:57.167Z,3245
2018-03-31T13:19:58.797Z,3195
2018-03-31T13:21:00.341Z,2945
2018-03-31T13:22:02.204Z,1070
2018-03-31T13:23:03.890Z,3085
2018-03-31T13:24:05.444Z,3025
2018-03-31T13:25:07.257Z,2880
2018-03-31T13:26:09.071Z,2865
2018-03-31T13:27:12.624Z,3030
2018-03-31T13:28:14.172Z,2905
2018-03-31T13:29:15.875Z,3045
2018-03-31T13:30:17.326Z,3100
2018-03-31T13:31:18.941Z,3110
2018-03-31T13:32:20.422Z,3040
2018-03-31T13:33:22.194Z,1080
2018-03-31T13:34:23.711Z,885
2018-03-31T13:35:25.173Z,670
2018-03-31T13:36:26.590Z,515
2018-03-31T13:37:28.221Z,430
2018-03-31T13:38:30.044Z,390
2018-03-31T13:39:31.494Z,390
2018-03-31T13:40:32.932Z,380
2018-03-31T13:41:34.794Z,410
2018-03-31T13:42:36.450Z,470
2018-03-31T13:43:37.986Z,565
2018-03-31T13:44:39.896Z,2970
2018-03-31T13:45:41.663Z,3030
2018-03-31T13:46:43.738Z,3215
2018-03-31T13:47:45.484Z,3270
2018-03-31T13:48:47.142Z,3320
2018-03-31T13:49:48.671Z,3365
2018-03-31T13:50:50.557Z,3270
2018-03-31T13:51:52.194Z,3155
2018-03-31T13:52:53.615Z,3075
2018-03-31T13:53:55.045Z,3000
2018-03-31T13:54:56.488Z,2910
2018-03-31T13:55:57.976Z,2975
2018-03-31T13:56:59.736Z,2170
2018-03-31T13:58:01.183Z,2235
2018-03-31T13:59:02.574Z,825
2018-03-31T14:00:04.442Z,1445
2018-03-31T14:01:06.112Z,740
2018-03-31T14:02:07.920Z,770
2018-03-31T14:03:09.526Z,780
2018-03-31T14:04:10.993Z,755
2018-03-31T14:05:12.456Z,765
2018-03-31T14:06:14.271Z,850
2018-03-31T14:07:16.143Z,840
2018-03-31T14:08:17.600Z,725
2018-03-31T14:09:19.011Z,590
2018-03-31T14:10:20.501Z,475
2018-03-31T14:11:21.977Z,405
2018-03-31T14:12:23.431Z,380
2018-03-31T14:13:25.039Z,385
2018-03-31T14:14:26.740Z,405
2018-03-31T14:15:28.375Z,430
2018-03-31T14:16:29.988Z,435
2018-03-31T14:17:31.460Z,435
2018-03-31T14:18:32.868Z,430
2018-03-31T14:19:34.278Z,415
2018-03-31T14:20:35.876Z,395
2018-03-31T14:21:37.392Z,370
2018-03-31T14:22:38.833Z,330
2018-03-31T14:23:40.504Z,290
2018-03-31T14:24:42.307Z,265